Oldenburg, IN (47036)

2:58 PM EST on February 13, 2016 (GMT -0500)
nearby | | Change Station
CLOSE
Current Station
Personal Weather Station
Location: Lake Santee, IN
Elevation: 1027 ft
Nearby Weather Stations

Elev 1027 ft 39.39 °N, 85.30 °W | Updated 5 seconds ago

Partly Cloudy
Partly Cloudy
20.5 °F
Feels Like 16 °F
N
3.1
Wind Variable Wind from West
Gusts 7.6 mph

Today
High -- | Low -- °F
--% Chance of Precip.
Yesterday
High -- | Low -- °F
Precip. -- in
Pressure 30.56 in
Visibility 10.0 miles
Clouds Clear
Windchill 16 °F
Dew Point -3 °F
Humidity 35%
Rainfall 0.00 in
Snow Depth Not available.
7:35 AM 6:14 PM
Waxing Crescent, 33% visible
METAR KGEZ 131953Z AUTO 27010KT 10SM CLR M07/M17 A3051 RMK AO2 SLP346 T10671172
Pressure 30.56 in
Visibility 10.0 miles
Clouds Clear
Windchill 16 °F
Dew Point -3 °F
Humidity 35%
Rainfall 0.00 in
Snow Depth Not available.
7:35 AM 6:14 PM
Waxing Crescent, 33% visible
METAR KGEZ 131953Z AUTO 27010KT 10SM CLR M07/M17 A3051 RMK AO2 SLP346 T10671172

10-Day Weather Forecast

Almanac

Astronomy

Feb. 13, 2016 Rise Set
Actual Time
Civil Twilight
Nautical Twilight
Astronomical Twilight
Moon
Length of Visible Light
Length of Day
Tomorrow will be .
, % of the Moon is Illuminated

Today's Extremes

State Highs State Lows

Community

WunderPhotos

Upload Photos

1,892,642 photos uploaded!

WunderBlog® & News

Nearby

Air Quality

  Air Quality AQ Index Pollutant
Not available.

Snow Depth

Station Depth Elevation

Earthquake Activity

City Distance Mag. Time & Date
Minimum magnitude displayed is 2.5.

Coastal Water Temperatures

Place Temperature

Stations

Nearby Weather Stations

Station Location Temp. Windchill Dew Point Humidity Wind Precip. Elev Updated Type
                   

Watches & Warnings

There are currently no watches in effect.